createdAt,value
2022-11-26T00:01:00.752Z,100590.75
2022-11-26T00:02:25.227Z,100586.00
2022-11-26T00:03:47.990Z,100590.22
2022-11-26T00:05:12.079Z,100586.34
2022-11-26T00:06:37.544Z,100588.75
2022-11-26T00:08:00.915Z,100599.00
2022-11-26T00:09:26.502Z,100594.41
2022-11-26T00:10:52.735Z,100590.63
2022-11-26T00:12:17.975Z,100596.50
2022-11-26T00:13:39.931Z,100587.38
2022-11-26T00:15:00.786Z,100595.41
2022-11-26T00:16:23.073Z,100603.00
2022-11-26T00:17:44.351Z,100595.72
2022-11-26T00:19:06.534Z,100595.31
2022-11-26T00:20:31.746Z,100598.69
2022-11-26T00:21:53.842Z,100596.72
2022-11-26T00:23:21.843Z,100592.09
2022-11-26T00:24:45.412Z,100596.31
2022-11-26T00:26:14.960Z,100601.53
2022-11-26T00:27:36.103Z,100593.38
2022-11-26T00:29:00.353Z,100601.13
2022-11-26T00:30:25.313Z,100598.31
2022-11-26T00:31:46.475Z,100600.00
2022-11-26T00:33:09.354Z,100603.38
2022-11-26T00:34:30.718Z,100600.44
2022-11-26T00:35:55.409Z,100597.78
2022-11-26T00:37:22.020Z,100603.81
2022-11-26T00:38:45.125Z,100596.50
2022-11-26T00:40:18.974Z,100607.06
2022-11-26T00:41:41.278Z,100604.25
2022-11-26T00:43:03.634Z,100609.44
2022-11-26T00:44:26.863Z,100607.38
2022-11-26T00:45:53.166Z,100606.38
2022-11-26T00:47:14.567Z,100608.91
2022-11-26T00:48:36.644Z,100608.75
2022-11-26T00:49:57.278Z,100619.59
2022-11-26T00:51:21.965Z,100608.75
2022-11-26T00:52:43.680Z,100614.81
2022-11-26T00:54:07.802Z,100610.19
2022-11-26T00:55:33.933Z,100614.53
2022-11-26T00:56:56.417Z,100614.53
2022-11-26T00:58:23.649Z,100614.41
2022-11-26T00:59:45.734Z,100612.44
2022-11-26T01:01:08.481Z,100617.63
2022-11-26T01:02:30.683Z,100616.66
2022-11-26T01:03:53.688Z,100618.22
2022-11-26T01:05:14.806Z,100612.88
2022-11-26T01:06:40.263Z,100609.22
2022-11-26T01:08:11.545Z,100613.59
2022-11-26T01:09:34.488Z,100616.97
2022-11-26T01:10:57.542Z,100608.81
2022-11-26T01:12:19.756Z,100612.19
2022-11-26T01:13:41.575Z,100610.50
2022-11-26T01:15:02.790Z,100605.84
2022-11-26T01:16:27.716Z,100618.25
2022-11-26T01:17:50.133Z,100610.22
2022-11-26T01:19:15.964Z,100607.38
2022-11-26T01:20:37.346Z,100615.28
2022-11-26T01:21:59.430Z,100611.78
2022-11-26T01:23:20.934Z,100608.09
2022-11-26T01:24:43.254Z,100615.16
2022-11-26T01:26:07.340Z,100618.66
2022-11-26T01:27:31.141Z,100625.84
2022-11-26T01:28:54.622Z,100619.50
2022-11-26T01:30:20.506Z,100617.66
2022-11-26T01:31:42.744Z,100625.69
2022-11-26T01:33:03.613Z,100620.34
2022-11-26T01:34:25.765Z,100624.00
2022-11-26T01:35:47.834Z,100629.47
2022-11-26T01:37:16.771Z,100635.66
2022-11-26T01:38:38.951Z,100624.97
2022-11-26T01:40:00.535Z,100627.63
2022-11-26T01:41:38.504Z,100621.47
2022-11-26T01:43:08.689Z,100625.13
2022-11-26T01:44:33.751Z,100621.63
2022-11-26T01:45:57.139Z,100622.47
2022-11-26T01:47:26.394Z,100625.97
2022-11-26T01:48:50.658Z,100624.28
2022-11-26T01:50:45.430Z,100631.44
2022-11-26T01:52:15.645Z,100623.41
2022-11-26T01:53:42.560Z,100628.75
2022-11-26T01:55:05.563Z,100630.59
2022-11-26T01:56:33.928Z,100627.94
2022-11-26T01:57:54.783Z,100627.09
2022-11-26T01:59:24.732Z,100629.88
2022-11-26T02:00:46.860Z,100628.09
2022-11-26T02:02:09.156Z,100628.94
2022-11-26T02:03:35.001Z,100624.53
2022-11-26T02:05:08.138Z,100622.88
2022-11-26T02:06:33.926Z,100623.72
2022-11-26T02:07:58.418Z,100634.09
2022-11-26T02:09:20.742Z,100635.94
2022-11-26T02:10:41.856Z,100634.09
2022-11-26T02:12:05.862Z,100636.78
2022-11-26T02:13:30.128Z,100641.16
2022-11-26T02:14:56.050Z,100634.97
2022-11-26T02:16:27.564Z,100633.97
2022-11-26T02:17:54.937Z,100641.16
2022-11-26T02:19:43.455Z,100644.66
2022-11-26T02:21:10.344Z,100636.66
2022-11-26T02:22:51.112Z,100638.31
2022-11-26T02:24:40.201Z,100644.53
2022-11-26T02:26:41.642Z,100636.53
2022-11-26T02:28:34.594Z,100641.88
2022-11-26T02:30:06.147Z,100634.69
2022-11-26T02:31:35.190Z,100634.53
2022-11-26T02:33:02.134Z,100643.41
2022-11-26T02:34:37.163Z,100638.06
2022-11-26T02:36:03.972Z,100636.97
2022-11-26T02:37:33.211Z,100632.44
2022-11-26T02:38:55.844Z,100649.19
2022-11-26T02:40:21.512Z,100643.00
2022-11-26T02:41:49.016Z,100645.41
2022-11-26T02:43:11.999Z,100642.72
2022-11-26T02:44:41.685Z,100643.56
2022-11-26T02:46:11.419Z,100643.44
2022-11-26T02:47:34.961Z,100642.44
2022-11-26T02:48:59.226Z,100636.97
2022-11-26T02:50:27.121Z,100641.31
2022-11-26T02:51:51.949Z,100639.47
2022-11-26T02:53:17.009Z,100642.88
2022-11-26T02:54:40.274Z,100642.88
2022-11-26T02:56:06.758Z,100649.91
2022-11-26T02:57:35.706Z,100640.06
2022-11-26T02:58:59.692Z,100646.25
2022-11-26T03:00:21.456Z,100649.75
2022-11-26T03:01:52.593Z,100647.94
2022-11-26T03:03:28.360Z,100643.56
2022-11-26T03:04:53.663Z,100648.94
2022-11-26T03:06:18.841Z,100649.75
2022-11-26T03:07:42.409Z,100646.13
2022-11-26T03:09:11.624Z,100649.63
2022-11-26T03:10:38.655Z,100652.31
2022-11-26T03:12:01.598Z,100651.47
2022-11-26T03:13:27.924Z,100661.16
2022-11-26T03:14:50.567Z,100650.59
2022-11-26T03:16:14.920Z,100658.63
2022-11-26T03:17:37.692Z,100655.94
2022-11-26T03:19:00.180Z,100656.94
2022-11-26T03:20:24.656Z,100663.13
2022-11-26T03:21:48.717Z,100663.13
2022-11-26T03:23:13.958Z,100656.94
2022-11-26T03:24:35.394Z,100669.31
2022-11-26T03:25:59.055Z,100661.44
2022-11-26T03:27:20.516Z,100668.47
2022-11-26T03:28:42.641Z,100675.66
2022-11-26T03:30:04.895Z,100674.94
2022-11-26T03:31:25.994Z,100675.66
2022-11-26T03:32:49.949Z,100665.78
2022-11-26T03:34:10.971Z,100668.47
2022-11-26T03:35:40.775Z,100672.84
2022-11-26T03:37:01.923Z,100675.53
2022-11-26T03:38:24.402Z,100670.19
2022-11-26T03:39:45.957Z,100678.19
2022-11-26T03:41:08.401Z,100678.19
2022-11-26T03:42:29.577Z,100682.53
2022-11-26T03:43:52.026Z,100685.22
2022-11-26T03:45:13.176Z,100679.75
2022-11-26T03:46:35.728Z,100684.22
2022-11-26T03:47:59.500Z,100679.75
2022-11-26T03:49:21.731Z,100684.09
2022-11-26T03:50:43.435Z,100681.72
2022-11-26T03:52:07.140Z,100678.88
2022-11-26T03:53:29.375Z,100679.75
2022-11-26T03:54:50.114Z,100683.53
2022-11-26T03:56:12.637Z,100677.19
2022-11-26T03:57:34.869Z,100684.22
2022-11-26T03:58:57.203Z,100685.94
2022-11-26T04:00:19.344Z,100681.41
2022-11-26T04:01:41.411Z,100684.22
2022-11-26T04:03:05.695Z,100686.78
2022-11-26T04:04:27.930Z,100687.59
2022-11-26T04:05:48.576Z,100686.06
2022-11-26T04:07:11.013Z,100685.94
2022-11-26T04:08:32.713Z,100692.13
2022-11-26T04:09:55.256Z,100690.16
2022-11-26T04:11:16.639Z,100691.00
2022-11-26T04:12:41.086Z,100692.66
2022-11-26T04:14:02.297Z,100683.69
2022-11-26T04:15:24.343Z,100687.19
2022-11-26T04:16:45.026Z,100686.34
2022-11-26T04:18:09.128Z,100695.09
2022-11-26T04:19:31.859Z,100694.09
2022-11-26T04:20:53.596Z,100697.47
2022-11-26T04:22:16.656Z,100695.50
2022-11-26T04:23:38.453Z,100696.22
2022-11-26T04:25:00.877Z,100696.34
2022-11-26T04:26:24.883Z,100688.34
2022-11-26T04:27:46.171Z,100693.56
2022-11-26T04:29:08.583Z,100693.38
2022-11-26T04:30:32.955Z,100696.91
2022-11-26T04:31:55.531Z,100692.44
2022-11-26T04:33:18.410Z,100699.44
2022-11-26T04:34:40.937Z,100695.78
2022-11-26T04:36:03.410Z,100697.50
2022-11-26T04:37:26.950Z,100703.66
2022-11-26T04:38:51.020Z,100701.84
2022-11-26T04:40:13.333Z,100702.84
2022-11-26T04:41:35.652Z,100710.69
2022-11-26T04:42:59.330Z,100709.84
2022-11-26T04:44:21.834Z,100701.72
2022-11-26T04:45:46.314Z,100716.75
2022-11-26T04:47:08.493Z,100706.06
2022-11-26T04:48:32.139Z,100717.47
2022-11-26T04:49:56.119Z,100720.00
2022-11-26T04:51:18.171Z,100720.13
2022-11-26T04:52:40.339Z,100714.66
2022-11-26T04:54:03.433Z,100726.91
2022-11-26T04:55:26.507Z,100721.56
2022-11-26T04:56:48.914Z,100726.91
2022-11-26T04:58:09.828Z,100725.06
2022-11-26T04:59:32.044Z,100730.44
2022-11-26T05:00:54.528Z,100730.44
2022-11-26T05:02:15.030Z,100724.38
2022-11-26T05:03:38.425Z,100724.25
2022-11-26T05:05:00.427Z,100726.91
2022-11-26T05:06:22.060Z,100726.19
2022-11-26T05:07:44.152Z,100726.19
2022-11-26T05:09:09.787Z,100726.91
2022-11-26T05:10:30.801Z,100729.59
2022-11-26T05:11:52.661Z,100729.59
2022-11-26T05:13:13.769Z,100732.25
2022-11-26T05:14:35.959Z,100736.59
2022-11-26T05:15:57.390Z,100732.97
2022-11-26T05:17:19.669Z,100733.81
2022-11-26T05:18:43.032Z,100739.00
2022-11-26T05:20:05.327Z,100743.22
2022-11-26T05:21:27.077Z,100745.78
2022-11-26T05:22:49.297Z,100741.25
2022-11-26T05:24:10.491Z,100746.31
2022-11-26T05:25:32.679Z,100747.03
2022-11-26T05:26:56.953Z,100746.06
2022-11-26T05:28:19.462Z,100750.41
2022-11-26T05:29:41.209Z,100749.69
2022-11-26T05:31:05.336Z,100748.59
2022-11-26T05:32:26.269Z,100749.28
2022-11-26T05:33:49.460Z,100751.84
2022-11-26T05:35:11.260Z,100759.88
2022-11-26T05:36:32.458Z,100758.72
2022-11-26T05:37:56.743Z,100755.06
2022-11-26T05:39:17.793Z,100762.13
2022-11-26T05:40:40.066Z,100766.47
2022-11-26T05:42:06.191Z,100759.16
2022-11-26T05:43:31.394Z,100761.84
2022-11-26T05:44:52.332Z,100769.69
2022-11-26T05:46:17.807Z,100769.56
2022-11-26T05:47:38.727Z,100768.56
2022-11-26T05:49:02.532Z,100768.44
2022-11-26T05:50:24.855Z,100776.34
2022-11-26T05:51:48.108Z,100771.81
2022-11-26T05:53:10.548Z,100774.38
2022-11-26T05:54:32.605Z,100774.38
2022-11-26T05:55:53.979Z,100770.69
2022-11-26T05:57:16.206Z,100772.38
2022-11-26T05:58:37.567Z,100780.28
2022-11-26T05:59:59.382Z,100776.75
2022-11-26T06:01:21.236Z,100770.69
2022-11-26T06:02:43.431Z,100780.28
2022-11-26T06:04:11.073Z,100775.63
2022-11-26T06:05:33.330Z,100779.16
2022-11-26T06:06:57.205Z,100791.53
2022-11-26T06:08:24.787Z,100786.19
2022-11-26T06:09:48.337Z,100785.22
2022-11-26T06:11:13.015Z,100778.03
2022-11-26T06:12:35.809Z,100791.28
2022-11-26T06:13:58.008Z,100787.59
2022-11-26T06:15:20.183Z,100793.78
2022-11-26T06:16:42.191Z,100789.16
2022-11-26T06:18:04.325Z,100786.47
2022-11-26T06:19:30.985Z,100792.53
2022-11-26T06:20:52.771Z,100792.41
2022-11-26T06:22:15.049Z,100799.44
2022-11-26T06:23:36.259Z,100797.59
2022-11-26T06:24:58.437Z,100795.75
2022-11-26T06:26:19.063Z,100793.38
2022-11-26T06:27:42.137Z,100803.78
2022-11-26T06:29:04.593Z,100804.66
2022-11-26T06:30:26.819Z,100806.47
2022-11-26T06:31:49.190Z,100805.50
2022-11-26T06:33:10.762Z,100804.91
2022-11-26T06:34:34.178Z,100812.81
2022-11-26T06:36:02.133Z,100813.81
2022-11-26T06:37:29.731Z,100814.66
2022-11-26T06:38:51.814Z,100822.69
2022-11-26T06:40:21.945Z,100824.53
2022-11-26T06:41:43.927Z,100824.34
2022-11-26T06:43:05.143Z,100826.06
2022-11-26T06:44:27.577Z,100825.91
2022-11-26T06:45:48.853Z,100828.47
2022-11-26T06:47:12.223Z,100827.47
2022-11-26T06:48:36.334Z,100835.38
2022-11-26T06:50:00.197Z,100833.53
2022-11-26T06:51:22.182Z,100839.72
2022-11-26T06:52:46.833Z,100835.50
2022-11-26T06:54:11.627Z,100838.88
2022-11-26T06:55:34.862Z,100849.47
2022-11-26T06:56:57.455Z,100840.44
2022-11-26T06:58:20.219Z,100841.97
2022-11-26T06:59:42.245Z,100841.97
2022-11-26T07:01:09.854Z,100849.03
2022-11-26T07:02:35.631Z,100854.22
2022-11-26T07:03:58.146Z,100854.22
2022-11-26T07:05:27.909Z,100859.47
2022-11-26T07:06:54.048Z,100861.97
2022-11-26T07:08:17.425Z,100859.28
2022-11-26T07:09:40.610Z,100864.53
2022-11-26T07:11:04.647Z,100867.06
2022-11-26T07:12:26.664Z,100863.25
2022-11-26T07:13:51.156Z,100868.47
2022-11-26T07:15:13.731Z,100876.22
2022-11-26T07:16:36.225Z,100867.19
2022-11-26T07:18:00.013Z,100874.09
2022-11-26T07:19:21.982Z,100872.25
2022-11-26T07:20:46.642Z,100876.78
2022-11-26T07:22:08.897Z,100878.34
2022-11-26T07:23:29.768Z,100883.56
2022-11-26T07:24:54.203Z,100878.03
2022-11-26T07:26:18.722Z,100870.00
2022-11-26T07:27:41.240Z,100885.13
2022-11-26T07:29:03.275Z,100884.13
2022-11-26T07:30:25.349Z,100884.97
2022-11-26T07:31:47.574Z,100887.53
2022-11-26T07:33:15.661Z,100885.69
2022-11-26T07:34:37.797Z,100890.22
2022-11-26T07:36:01.316Z,100897.25
2022-11-26T07:37:23.491Z,100895.56
2022-11-26T07:38:45.550Z,100894.56
2022-11-26T07:40:09.365Z,100898.94
2022-11-26T07:41:30.641Z,100899.91
2022-11-26T07:42:53.430Z,100899.78
2022-11-26T07:44:20.009Z,100898.94
2022-11-26T07:45:42.287Z,100903.31
2022-11-26T07:47:04.786Z,100897.94
2022-11-26T07:48:29.180Z,100903.31
2022-11-26T07:49:51.340Z,100901.63
2022-11-26T07:51:18.414Z,100896.41
2022-11-26T07:52:40.671Z,100905.16
2022-11-26T07:54:06.428Z,100902.34
2022-11-26T07:55:28.199Z,100906.81
2022-11-26T07:57:12.027Z,100914.72
2022-11-26T07:58:34.066Z,100913.72
2022-11-26T07:59:56.056Z,100913.47
2022-11-26T08:01:21.348Z,100919.50
2022-11-26T08:02:43.899Z,100911.47
2022-11-26T08:04:07.815Z,100916.56
2022-11-26T08:05:32.728Z,100916.41
2022-11-26T08:06:56.126Z,100918.78
2022-11-26T08:08:20.991Z,100918.66
2022-11-26T08:09:49.383Z,100914.84
2022-11-26T08:11:15.526Z,100927.13
2022-11-26T08:12:37.724Z,100917.09
2022-11-26T08:14:01.990Z,100921.34
2022-11-26T08:15:23.855Z,100919.38
2022-11-26T08:16:46.221Z,100915.69
2022-11-26T08:18:07.171Z,100925.25
2022-11-26T08:19:29.335Z,100923.28
2022-11-26T08:20:57.029Z,100933.03
2022-11-26T08:22:20.536Z,100919.34
2022-11-26T08:23:42.809Z,100929.06
2022-11-26T08:25:04.266Z,100931.91
2022-11-26T08:26:34.737Z,100934.28
2022-11-26T08:27:59.389Z,100927.09
2022-11-26T08:29:21.538Z,100930.47
2022-11-26T08:30:43.969Z,100930.47
2022-11-26T08:32:06.629Z,100933.88
2022-11-26T08:33:29.145Z,100934.72
2022-11-26T08:34:54.868Z,100937.22
2022-11-26T08:36:16.387Z,100938.22
2022-11-26T08:37:38.682Z,100938.94
2022-11-26T08:39:01.820Z,100947.69
2022-11-26T08:40:23.790Z,100941.47
2022-11-26T08:41:50.546Z,100947.94
2022-11-26T08:43:14.075Z,100950.38
2022-11-26T08:44:38.375Z,100942.16
2022-11-26T08:46:03.970Z,100950.19
2022-11-26T08:47:26.178Z,100951.91
2022-11-26T08:49:01.149Z,100953.88
2022-11-26T08:50:24.006Z,100959.97
2022-11-26T08:51:48.222Z,100952.75
2022-11-26T08:53:12.094Z,100965.88
2022-11-26T08:54:45.268Z,100963.75
2022-11-26T08:56:14.804Z,100961.91
2022-11-26T08:57:37.030Z,100958.94
2022-11-26T08:58:58.642Z,100968.97
2022-11-26T09:00:21.767Z,100963.28
2022-11-26T09:01:42.869Z,100969.38
2022-11-26T09:03:05.268Z,100977.41
2022-11-26T09:04:27.677Z,100974.72
2022-11-26T09:05:49.927Z,100973.88
2022-11-26T09:07:14.414Z,100979.25
2022-11-26T09:09:05.408Z,100973.75
2022-11-26T09:10:27.655Z,100975.59
2022-11-26T09:11:54.639Z,100972.75
2022-11-26T09:13:28.815Z,100985.19
2022-11-26T09:14:53.795Z,100979.66
2022-11-26T09:16:23.093Z,100979.66
2022-11-26T09:17:52.476Z,100981.38
2022-11-26T09:19:18.013Z,100986.56
2022-11-26T09:20:40.253Z,100991.94
2022-11-26T09:22:02.727Z,100985.59
2022-11-26T09:23:25.018Z,100984.47
2022-11-26T09:24:51.192Z,100986.56
2022-11-26T09:26:13.082Z,100981.88
2022-11-26T09:27:37.800Z,100979.91
2022-11-26T09:29:00.251Z,100986.81
2022-11-26T09:30:22.404Z,100987.66
2022-11-26T09:32:15.541Z,100986.53
2022-11-26T09:33:28.318Z,100988.06
2022-11-26T09:34:50.290Z,100991.47
2022-11-26T09:36:15.024Z,100981.44
2022-11-26T09:37:37.147Z,100985.94
2022-11-26T09:38:59.844Z,100985.38
2022-11-26T09:40:28.515Z,100980.88
2022-11-26T09:41:54.244Z,100988.06
2022-11-26T09:43:26.523Z,100985.53
2022-11-26T09:44:55.336Z,100987.66
2022-11-26T09:46:23.496Z,100985.81
2022-11-26T09:47:53.542Z,100986.66
2022-11-26T09:49:16.127Z,100987.53
2022-11-26T09:50:38.926Z,100987.53
2022-11-26T09:52:09.041Z,100987.53
2022-11-26T09:53:36.713Z,100991.91
2022-11-26T09:55:15.718Z,100991.75
2022-11-26T09:56:41.744Z,100996.00
2022-11-26T09:58:16.130Z,100991.47
2022-11-26T09:59:39.728Z,100993.00
2022-11-26T10:01:05.470Z,100990.84
2022-11-26T10:02:27.519Z,100998.63
2022-11-26T10:03:50.147Z,100999.31
2022-11-26T10:05:15.924Z,101002.69
2022-11-26T10:06:52.267Z,101002.56
2022-11-26T10:08:36.337Z,101007.63
2022-11-26T10:10:09.511Z,101009.03
2022-11-26T10:11:37.284Z,101013.09
2022-11-26T10:13:19.768Z,101003.91
2022-11-26T10:14:58.404Z,101009.84
2022-11-26T10:16:31.317Z,101006.03
2022-11-26T10:18:04.472Z,101012.94
2022-11-26T10:19:31.675Z,101004.56
2022-11-26T10:21:14.933Z,101008.09
2022-11-26T10:22:41.361Z,101011.66
2022-11-26T10:24:10.583Z,101015.19
2022-11-26T10:25:42.366Z,101016.00
2022-11-26T10:27:15.958Z,101009.09
2022-11-26T10:28:45.372Z,101014.59
2022-11-26T10:30:18.629Z,101015.03
2022-11-26T10:31:48.745Z,101018.88
2022-11-26T10:33:53.159Z,101021.16
2022-11-26T10:37:09.584Z,101025.44
2022-11-26T10:38:37.142Z,101025.59
2022-11-26T10:41:39.467Z,101026.28
2022-11-26T10:45:33.248Z,101025.44
2022-11-26T10:47:02.320Z,101026.13
2022-11-26T10:48:27.552Z,101031.50
2022-11-26T10:49:49.353Z,101027.13
2022-11-26T10:51:29.257Z,101027.97
2022-11-26T10:53:22.614Z,101028.25
2022-11-26T10:54:45.147Z,101036.31
2022-11-26T10:56:08.436Z,101030.25
2022-11-26T10:57:30.562Z,101031.38
2022-11-26T10:59:00.419Z,101028.84
2022-11-26T11:00:46.293Z,101042.84
2022-11-26T11:02:27.918Z,101045.97
2022-11-26T11:04:11.535Z,101044.53
2022-11-26T11:05:34.666Z,101047.81
2022-11-26T11:06:56.640Z,101045.56
2022-11-26T11:08:31.336Z,101049.69
2022-11-26T11:10:03.780Z,101049.09
2022-11-26T11:11:28.587Z,101054.63
2022-11-26T11:12:52.171Z,101045.88
2022-11-26T11:14:29.607Z,101042.47
2022-11-26T11:16:02.744Z,101042.47
2022-11-26T11:17:34.723Z,101050.69
2022-11-26T11:18:58.721Z,101058.72
2022-11-26T11:20:30.841Z,101050.81
2022-11-26T11:21:52.765Z,101052.06
2022-11-26T11:23:40.065Z,101056.72
2022-11-26T11:25:06.269Z,101061.53
2022-11-26T11:26:28.519Z,101057.44
2022-11-26T11:27:50.010Z,101059.44
2022-11-26T11:29:34.084Z,101061.66
2022-11-26T11:31:06.401Z,101061.00
2022-11-26T11:32:37.037Z,101067.59
2022-11-26T11:34:14.326Z,101058.13
2022-11-26T11:35:35.822Z,101061.94
2022-11-26T11:37:02.760Z,101062.25
2022-11-26T11:38:27.089Z,101073.09
2022-11-26T11:40:04.789Z,101075.22
2022-11-26T11:41:31.098Z,101077.19
2022-11-26T11:42:54.949Z,101071.09
2022-11-26T11:44:21.047Z,101080.28
2022-11-26T11:45:52.960Z,101070.69
2022-11-26T11:47:34.367Z,101074.47
2022-11-26T11:49:09.498Z,101079.00
2022-11-26T11:50:35.298Z,101081.81
2022-11-26T11:52:13.209Z,101083.81
2022-11-26T11:53:47.069Z,101084.91
2022-11-26T11:55:22.904Z,101085.03
2022-11-26T11:56:52.735Z,101085.88
2022-11-26T11:58:39.467Z,101087.72
2022-11-26T12:00:13.658Z,101085.88
2022-11-26T12:01:59.898Z,101093.94
2022-11-26T12:03:49.924Z,101086.03
2022-11-26T12:05:58.003Z,101087.84
2022-11-26T12:07:36.099Z,101093.38
2022-11-26T12:09:09.364Z,101090.69
2022-11-26T12:10:41.130Z,101100.56
2022-11-26T12:12:12.030Z,101102.38
2022-11-26T12:13:42.723Z,101100.56
2022-11-26T12:15:13.174Z,101091.66
2022-11-26T12:16:40.329Z,101100.56
2022-11-26T12:18:16.735Z,101104.91
2022-11-26T12:19:46.422Z,101108.44
2022-11-26T12:21:13.359Z,101112.69
2022-11-26T12:22:41.805Z,101107.19
2022-11-26T12:24:08.526Z,101101.56
2022-11-26T12:25:36.848Z,101103.94
2022-11-26T12:27:04.768Z,101111.88
2022-11-26T12:28:30.453Z,101114.38
2022-11-26T12:29:57.504Z,101108.91
2022-11-26T12:31:26.242Z,101111.28
2022-11-26T12:32:55.115Z,101113.00
2022-11-26T12:34:30.474Z,101115.41
2022-11-26T12:35:56.760Z,101115.13
2022-11-26T12:37:25.549Z,101110.59
2022-11-26T12:38:53.508Z,101110.47
2022-11-26T12:40:34.500Z,101112.03
2022-11-26T12:42:01.426Z,101117.25
2022-11-26T12:43:31.205Z,101115.31
2022-11-26T12:44:54.724Z,101112.34
2022-11-26T12:46:21.042Z,101115.72
2022-11-26T12:47:50.651Z,101111.03
2022-11-26T12:49:23.559Z,101110.91
2022-11-26T12:50:53.202Z,101108.13
2022-11-26T12:52:32.268Z,101106.28
2022-11-26T12:54:04.304Z,101107.13
2022-11-26T12:55:33.000Z,101107.94
2022-11-26T12:57:01.395Z,101107.00
2022-11-26T12:58:30.233Z,101110.50
2022-11-26T12:59:59.971Z,101104.31
2022-11-26T13:01:24.365Z,101107.00
2022-11-26T13:02:49.867Z,101101.63
2022-11-26T13:04:36.744Z,101106.13
2022-11-26T13:06:01.977Z,101101.75
2022-11-26T13:07:39.863Z,101110.78
2022-11-26T13:09:10.570Z,101109.06
2022-11-26T13:10:42.416Z,101114.59
2022-11-26T13:12:11.962Z,101112.03
2022-11-26T13:13:43.293Z,101117.53
2022-11-26T13:15:15.817Z,101123.06
2022-11-26T13:16:52.888Z,101113.47
2022-11-26T13:18:22.477Z,101113.59
2022-11-26T13:19:49.062Z,101120.91
2022-11-26T13:21:26.930Z,101119.34
2022-11-26T13:23:05.414Z,101122.19
2022-11-26T13:24:41.251Z,101119.63
2022-11-26T13:26:13.397Z,101111.72
2022-11-26T13:27:50.357Z,101123.44
2022-11-26T13:29:40.580Z,101116.53
2022-11-26T13:31:17.312Z,101126.41
2022-11-26T13:33:36.330Z,101136.41
2022-11-26T13:35:15.949Z,101133.72
2022-11-26T13:37:08.481Z,101137.41
2022-11-26T13:38:44.508Z,101141.78
2022-11-26T13:40:38.466Z,101142.06
2022-11-26T13:42:22.146Z,101144.84
2022-11-26T13:44:10.983Z,101143.31
2022-11-26T13:46:02.110Z,101146.09
2022-11-26T13:47:28.179Z,101145.25
2022-11-26T13:48:57.045Z,101149.91
2022-11-26T13:50:23.059Z,101144.69
2022-11-26T13:51:50.444Z,101147.50
2022-11-26T13:53:17.181Z,101146.78
2022-11-26T13:54:46.939Z,101152.31
2022-11-26T13:56:10.935Z,101153.16
2022-11-26T13:57:41.519Z,101155.81
2022-11-26T13:59:14.846Z,101167.53
2022-11-26T14:00:37.551Z,101161.31
2022-11-26T14:02:00.029Z,101164.84
2022-11-26T14:03:44.771Z,101167.53
2022-11-26T14:05:09.211Z,101167.38
2022-11-26T14:06:32.444Z,101170.91
2022-11-26T14:08:29.382Z,101170.06
2022-11-26T14:09:55.897Z,101164.69
2022-11-26T14:11:54.529Z,101173.56
2022-11-26T14:13:19.877Z,101170.91
2022-11-26T14:14:44.974Z,101169.22
2022-11-26T14:16:10.085Z,101168.38
2022-11-26T14:18:16.087Z,101168.50
2022-11-26T14:20:17.017Z,101182.16
2022-11-26T14:22:06.992Z,101177.94
2022-11-26T14:23:58.598Z,101180.84
2022-11-26T14:25:39.667Z,101179.41
2022-11-26T14:27:00.449Z,101175.91
2022-11-26T14:28:24.459Z,101185.88
2022-11-26T14:29:47.223Z,101184.19
2022-11-26T14:31:15.772Z,101190.53
2022-11-26T14:32:41.936Z,101185.44
2022-11-26T14:34:11.280Z,101185.44
2022-11-26T14:35:40.966Z,101178.38
2022-11-26T14:37:04.805Z,101187.41
2022-11-26T14:38:35.556Z,101191.91
2022-11-26T14:40:01.266Z,101190.19
2022-11-26T14:41:25.195Z,101185.84
2022-11-26T14:42:47.372Z,101180.59
2022-11-26T14:44:13.657Z,101186.13
2022-11-26T14:45:39.479Z,101194.16
2022-11-26T14:47:13.475Z,101195.09
2022-11-26T14:48:43.822Z,101194.41
2022-11-26T14:50:08.942Z,101201.56
2022-11-26T14:51:32.784Z,101199.06
2022-11-26T14:53:02.473Z,101205.38
2022-11-26T14:54:31.271Z,101212.56
2022-11-26T14:55:54.565Z,101212.69
2022-11-26T14:57:21.173Z,101217.19
2022-11-26T14:58:47.341Z,101217.47
2022-11-26T15:00:23.656Z,101216.63
2022-11-26T15:01:47.301Z,101213.94
2022-11-26T15:03:24.218Z,101222.94
2022-11-26T15:04:46.241Z,101222.94
2022-11-26T15:06:08.870Z,101221.13
2022-11-26T15:07:31.937Z,101213.94
2022-11-26T15:09:06.191Z,101218.44
2022-11-26T15:10:32.146Z,101222.69
2022-11-26T15:12:02.953Z,101222.69
2022-11-26T15:13:29.396Z,101224.38
2022-11-26T15:14:54.812Z,101226.94
2022-11-26T15:16:31.357Z,101234.81
2022-11-26T15:17:57.802Z,101232.03
2022-11-26T15:19:21.162Z,101231.03
2022-11-26T15:20:43.340Z,101230.06
2022-11-26T15:22:05.139Z,101234.69
2022-11-26T15:23:36.790Z,101231.03
2022-11-26T15:25:03.369Z,101235.28
2022-11-26T15:26:28.507Z,101234.44
2022-11-26T15:27:56.683Z,101243.31
2022-11-26T15:29:37.389Z,101237.09
2022-11-26T15:31:01.783Z,101241.34
2022-11-26T15:32:27.501Z,101237.72
2022-11-26T15:33:50.977Z,101240.38
2022-11-26T15:35:17.873Z,101243.75
2022-11-26T15:36:43.164Z,101247.31
2022-11-26T15:38:17.848Z,101243.63
2022-11-26T15:39:39.824Z,101244.34
2022-11-26T15:41:10.120Z,101254.06
2022-11-26T15:42:32.526Z,101250.56
2022-11-26T15:43:59.009Z,101254.78
2022-11-26T15:45:25.138Z,101246.63
2022-11-26T15:46:53.102Z,101243.97
2022-11-26T15:48:50.073Z,101243.13
2022-11-26T15:50:28.619Z,101238.59
2022-11-26T15:51:54.848Z,101243.97
2022-11-26T15:53:19.998Z,101243.97
2022-11-26T15:55:12.132Z,101238.44
2022-11-26T15:56:40.124Z,101246.50
2022-11-26T15:58:06.354Z,101246.38
2022-11-26T15:59:31.788Z,101247.22
2022-11-26T16:00:57.171Z,101256.09
2022-11-26T16:02:22.197Z,101252.44
2022-11-26T16:03:48.859Z,101255.13
2022-11-26T16:05:24.451Z,101250.63
2022-11-26T16:06:46.671Z,101246.94
2022-11-26T16:08:25.854Z,101248.78
2022-11-26T16:09:54.375Z,101245.13
2022-11-26T16:11:23.896Z,101249.50
2022-11-26T16:13:19.193Z,101245.13
2022-11-26T16:14:45.334Z,101240.63
2022-11-26T16:16:16.392Z,101246.81
2022-11-26T16:17:39.048Z,101246.72
2022-11-26T16:19:04.482Z,101252.19
2022-11-26T16:20:34.232Z,101250.25
2022-11-26T16:21:57.890Z,101257.44
2022-11-26T16:23:25.693Z,101251.94
2022-11-26T16:25:01.466Z,101255.59
2022-11-26T16:26:23.495Z,101254.63
2022-11-26T16:28:03.859Z,101262.53
2022-11-26T16:29:46.689Z,101253.66
2022-11-26T16:31:24.933Z,101251.81
2022-11-26T16:32:49.205Z,101257.91
2022-11-26T16:34:11.392Z,101263.25
2022-11-26T16:35:49.664Z,101255.06
2022-11-26T16:37:21.397Z,101262.13
2022-11-26T16:38:43.361Z,101261.28
2022-11-26T16:40:15.373Z,101265.66
2022-11-26T16:41:37.457Z,101257.63